createdAt,value
2022-07-28T00:00:15.237Z,19.70
2022-07-28T00:02:42.280Z,19.70
2022-07-28T00:05:09.746Z,19.60
2022-07-28T00:07:37.063Z,19.60
2022-07-28T00:10:04.646Z,19.60
2022-07-28T00:12:31.686Z,19.60
2022-07-28T00:14:59.006Z,19.60
2022-07-28T00:17:26.093Z,19.60
2022-07-28T00:19:54.018Z,19.60
2022-07-28T00:22:21.043Z,19.50
2022-07-28T00:24:49.185Z,19.50
2022-07-28T00:27:19.181Z,19.50
2022-07-28T00:29:50.268Z,19.40
2022-07-28T00:32:21.096Z,19.30
2022-07-28T00:34:49.294Z,19.30
2022-07-28T00:37:22.723Z,19.20
2022-07-28T00:39:50.647Z,19.20
2022-07-28T00:42:20.060Z,19.20
2022-07-28T00:44:47.860Z,19.20
2022-07-28T00:47:15.662Z,19.20
2022-07-28T00:49:45.347Z,19.30
2022-07-28T00:52:13.109Z,19.30
2022-07-28T00:54:41.736Z,19.30
2022-07-28T00:57:09.672Z,19.20
2022-07-28T00:59:39.427Z,19.30
2022-07-28T01:02:07.857Z,19.30
2022-07-28T01:04:35.310Z,19.20
2022-07-28T01:07:15.033Z,19.20
2022-07-28T01:09:53.780Z,19.20
2022-07-28T01:12:34.554Z,19.10
2022-07-28T01:15:15.092Z,19.20
2022-07-28T01:18:09.240Z,19.20
2022-07-28T01:20:49.209Z,19.20
2022-07-28T01:23:39.359Z,19.10
2022-07-28T01:26:36.888Z,19.10
2022-07-28T01:29:15.968Z,19.00
2022-07-28T01:32:05.127Z,18.80
2022-07-28T01:34:41.295Z,18.80
2022-07-28T01:37:13.531Z,18.90
2022-07-28T01:39:43.245Z,18.80
2022-07-28T01:42:13.131Z,18.80
2022-07-28T01:44:45.989Z,18.80
2022-07-28T01:47:14.715Z,18.80
2022-07-28T01:49:44.197Z,18.70
2022-07-28T01:52:11.224Z,18.80
2022-07-28T01:54:42.593Z,18.70
2022-07-28T01:57:14.701Z,18.70
2022-07-28T01:59:45.734Z,18.70
2022-07-28T02:02:17.860Z,18.70
2022-07-28T02:04:47.834Z,18.70
2022-07-28T02:07:18.195Z,18.60
2022-07-28T02:09:47.195Z,18.60
2022-07-28T02:12:18.616Z,18.60
2022-07-28T02:14:50.549Z,18.50
2022-07-28T02:17:20.583Z,18.50
2022-07-28T02:19:50.050Z,18.50
2022-07-28T02:22:20.398Z,18.40
2022-07-28T02:24:48.535Z,18.40
2022-07-28T02:27:22.356Z,18.30
2022-07-28T02:29:58.015Z,18.30
2022-07-28T02:32:40.091Z,18.20
2022-07-28T02:35:32.515Z,18.30
2022-07-28T02:38:07.806Z,18.30
2022-07-28T02:40:37.684Z,18.30
2022-07-28T02:43:11.005Z,18.20
2022-07-28T02:45:44.477Z,18.30
2022-07-28T02:48:15.701Z,18.20
2022-07-28T02:50:45.572Z,18.20
2022-07-28T02:53:16.317Z,18.20
2022-07-28T02:55:48.874Z,18.10
2022-07-28T02:58:26.532Z,18.10
2022-07-28T03:00:55.506Z,18.20
2022-07-28T03:03:23.453Z,18.10
2022-07-28T03:05:51.216Z,18.10
2022-07-28T03:08:19.336Z,18.00
2022-07-28T03:10:46.841Z,18.10
2022-07-28T03:13:14.036Z,18.10
2022-07-28T03:15:40.983Z,18.10
2022-07-28T03:18:09.390Z,18.10
2022-07-28T03:20:37.485Z,18.00
2022-07-28T03:23:05.576Z,18.10
2022-07-28T03:25:43.288Z,18.00
2022-07-28T03:28:15.147Z,17.90
2022-07-28T03:30:45.661Z,17.90
2022-07-28T03:33:13.109Z,17.90
2022-07-28T03:35:46.116Z,17.90
2022-07-28T03:38:17.862Z,17.90
2022-07-28T03:40:46.958Z,17.80
2022-07-28T03:43:19.056Z,17.80
2022-07-28T03:45:47.780Z,17.70
2022-07-28T03:48:15.831Z,17.80
2022-07-28T03:50:45.556Z,17.70
2022-07-28T03:53:22.869Z,17.60
2022-07-28T03:55:53.662Z,17.70
2022-07-28T03:58:22.437Z,17.70
2022-07-28T04:00:54.567Z,17.60
2022-07-28T04:03:43.019Z,17.60
2022-07-28T04:06:14.162Z,17.60
2022-07-28T04:08:42.352Z,17.60
2022-07-28T04:11:11.390Z,17.60
2022-07-28T04:13:38.793Z,17.60
2022-07-28T04:16:07.560Z,17.50
2022-07-28T04:18:35.607Z,17.60
2022-07-28T04:21:03.266Z,17.70
2022-07-28T04:23:31.037Z,17.70
2022-07-28T04:25:59.025Z,17.60
2022-07-28T04:28:26.497Z,17.60
2022-07-28T04:30:53.797Z,17.70
2022-07-28T04:33:21.257Z,17.70
2022-07-28T04:35:52.996Z,17.70
2022-07-28T04:38:20.418Z,17.70
2022-07-28T04:40:48.394Z,17.80
2022-07-28T04:43:16.447Z,17.80
2022-07-28T04:45:53.535Z,17.70
2022-07-28T04:48:23.189Z,17.60
2022-07-28T04:50:52.848Z,17.50
2022-07-28T04:53:20.606Z,17.50
2022-07-28T04:55:48.062Z,17.60
2022-07-28T04:58:19.412Z,17.60
2022-07-28T05:00:49.533Z,17.60
2022-07-28T05:03:19.454Z,17.50
2022-07-28T05:05:49.194Z,17.50
2022-07-28T05:08:26.670Z,17.60
2022-07-28T05:10:55.783Z,17.50
2022-07-28T05:13:22.866Z,17.50
2022-07-28T05:15:49.878Z,17.50
2022-07-28T05:18:16.946Z,17.60
2022-07-28T05:20:44.197Z,17.50
2022-07-28T05:23:12.759Z,17.60
2022-07-28T05:25:39.834Z,17.60
2022-07-28T05:28:06.841Z,17.60
2022-07-28T05:30:34.020Z,17.60
2022-07-28T05:33:02.032Z,17.60
2022-07-28T05:35:29.843Z,17.60
2022-07-28T05:37:56.879Z,17.50
2022-07-28T05:40:23.902Z,17.60
2022-07-28T05:42:51.373Z,17.60
2022-07-28T05:45:18.589Z,17.50
2022-07-28T05:47:48.214Z,17.60
2022-07-28T05:50:17.474Z,17.70
2022-07-28T05:52:46.236Z,17.60
2022-07-28T05:55:14.855Z,17.50
2022-07-28T05:57:42.452Z,17.50
2022-07-28T06:00:16.141Z,17.60
2022-07-28T06:02:48.425Z,17.50
2022-07-28T06:05:20.565Z,17.60
2022-07-28T06:07:48.850Z,17.60
2022-07-28T06:10:17.974Z,17.60
2022-07-28T06:12:47.107Z,17.70
2022-07-28T06:15:16.030Z,17.70
2022-07-28T06:17:44.183Z,17.70
2022-07-28T06:20:12.688Z,17.80
2022-07-28T06:22:47.102Z,17.80
2022-07-28T06:25:15.561Z,17.90
2022-07-28T06:27:45.148Z,17.90
2022-07-28T06:30:13.177Z,17.90
2022-07-28T06:32:40.725Z,18.00
2022-07-28T06:35:09.326Z,18.10
2022-07-28T06:37:36.567Z,18.10
2022-07-28T06:40:04.608Z,18.10
2022-07-28T06:42:31.787Z,18.20
2022-07-28T06:44:59.977Z,18.10
2022-07-28T06:47:27.687Z,18.10
2022-07-28T06:49:55.148Z,18.10
2022-07-28T06:52:22.427Z,18.10
2022-07-28T06:54:52.263Z,18.30
2022-07-28T06:57:21.460Z,18.40
2022-07-28T06:59:49.624Z,18.40
2022-07-28T07:02:17.790Z,18.50
2022-07-28T07:04:46.885Z,18.50
2022-07-28T07:07:16.187Z,18.60
2022-07-28T07:09:44.644Z,18.70
2022-07-28T07:12:11.790Z,18.90
2022-07-28T07:14:39.657Z,19.00
2022-07-28T07:17:06.755Z,19.20
2022-07-28T07:19:33.737Z,19.20
2022-07-28T07:22:01.052Z,19.40
2022-07-28T07:24:28.702Z,19.60
2022-07-28T07:26:59.301Z,19.90
2022-07-28T07:29:30.469Z,20.10
2022-07-28T07:31:58.799Z,20.00
2022-07-28T07:34:27.141Z,19.90
2022-07-28T07:36:54.386Z,19.80
2022-07-28T07:39:21.464Z,19.90
2022-07-28T07:41:48.727Z,19.90
2022-07-28T07:44:17.560Z,19.90
2022-07-28T07:46:45.543Z,20.10
2022-07-28T07:49:12.547Z,20.00
2022-07-28T07:51:39.630Z,20.20
2022-07-28T07:54:08.048Z,20.20
2022-07-28T07:56:36.977Z,20.30
2022-07-28T07:59:05.403Z,20.30
2022-07-28T08:01:32.645Z,20.30
2022-07-28T08:04:01.273Z,20.30
2022-07-28T08:06:30.484Z,20.40
2022-07-28T08:08:57.891Z,20.30
2022-07-28T08:11:24.963Z,20.50
2022-07-28T08:13:53.963Z,20.70
2022-07-28T08:16:21.513Z,20.70
2022-07-28T08:18:49.705Z,20.70
2022-07-28T08:21:17.732Z,20.80
2022-07-28T08:23:45.065Z,20.80
2022-07-28T08:26:13.447Z,20.80
2022-07-28T08:28:40.511Z,20.90
2022-07-28T08:31:08.169Z,21.10
2022-07-28T08:33:35.860Z,21.30
2022-07-28T08:36:24.457Z,21.40
2022-07-28T08:38:51.537Z,21.50
2022-07-28T08:41:26.733Z,21.40
2022-07-28T08:44:04.155Z,21.40
2022-07-28T08:46:36.358Z,21.40
2022-07-28T08:49:07.824Z,21.60
2022-07-28T08:51:35.599Z,21.70
2022-07-28T08:54:04.037Z,21.70
2022-07-28T08:56:32.799Z,21.70
2022-07-28T08:59:02.240Z,21.90
2022-07-28T09:01:29.590Z,21.80
2022-07-28T09:04:08.643Z,22.10
2022-07-28T09:06:41.992Z,22.20
2022-07-28T09:09:10.015Z,22.20
2022-07-28T09:11:38.326Z,22.30
2022-07-28T09:14:07.288Z,22.40
2022-07-28T09:16:34.747Z,22.40
2022-07-28T09:19:01.854Z,22.60
2022-07-28T09:21:30.018Z,22.50
2022-07-28T09:23:57.705Z,22.60
2022-07-28T09:26:24.759Z,22.70
2022-07-28T09:28:57.638Z,22.60
2022-07-28T09:31:27.231Z,22.70
2022-07-28T09:34:00.458Z,22.80
2022-07-28T09:36:29.752Z,22.90
2022-07-28T09:38:56.980Z,23.00
2022-07-28T09:41:26.416Z,23.10
2022-07-28T09:43:55.896Z,23.20
2022-07-28T09:46:26.662Z,23.40
2022-07-28T09:49:00.338Z,23.60
2022-07-28T09:51:33.493Z,23.70
2022-07-28T09:54:09.243Z,23.90
2022-07-28T09:56:38.846Z,24.00
2022-07-28T09:59:08.179Z,24.00
2022-07-28T10:01:55.624Z,24.10
2022-07-28T10:04:41.600Z,24.20
2022-07-28T10:07:11.208Z,24.20
2022-07-28T10:09:40.997Z,24.20
2022-07-28T10:12:31.118Z,24.30
2022-07-28T10:15:43.287Z,24.40
2022-07-28T10:18:17.830Z,24.30
2022-07-28T10:20:47.201Z,24.60
2022-07-28T10:23:15.273Z,24.60
2022-07-28T10:25:44.713Z,24.40
2022-07-28T10:28:18.084Z,24.40
2022-07-28T10:30:47.578Z,24.50
2022-07-28T10:33:16.707Z,24.70
2022-07-28T10:35:51.026Z,24.70
2022-07-28T10:38:26.134Z,24.70
2022-07-28T10:40:59.496Z,24.80
2022-07-28T10:43:28.082Z,24.70
2022-07-28T10:46:07.346Z,24.70
2022-07-28T10:48:40.305Z,24.80
2022-07-28T10:51:11.484Z,24.80
2022-07-28T10:53:54.459Z,24.80
2022-07-28T10:56:48.167Z,25.00
2022-07-28T10:59:40.588Z,25.00
2022-07-28T11:02:07.730Z,25.00
2022-07-28T11:04:48.229Z,24.90
2022-07-28T11:07:20.922Z,25.00
2022-07-28T11:09:48.886Z,25.00
2022-07-28T11:12:17.462Z,25.10
2022-07-28T11:14:47.184Z,24.90
2022-07-28T11:17:24.092Z,25.00
2022-07-28T11:20:27.247Z,24.90
2022-07-28T11:22:52.198Z,24.90
2022-07-28T11:25:22.166Z,25.00
2022-07-28T11:27:50.581Z,25.10
2022-07-28T11:30:31.956Z,25.10
2022-07-28T11:32:59.707Z,25.00
2022-07-28T11:35:28.242Z,25.00
2022-07-28T11:38:01.218Z,25.10
2022-07-28T11:40:50.705Z,25.10
2022-07-28T11:43:36.154Z,25.10
2022-07-28T11:46:09.554Z,25.10
2022-07-28T11:48:39.872Z,25.00
2022-07-28T11:51:07.186Z,24.90
2022-07-28T11:53:47.208Z,24.90
2022-07-28T11:56:25.136Z,25.00
2022-07-28T11:59:04.284Z,25.10
2022-07-28T12:01:32.474Z,25.10
2022-07-28T12:04:14.715Z,25.00
2022-07-28T12:06:49.417Z,24.90
2022-07-28T12:09:25.286Z,25.00
2022-07-28T12:11:56.113Z,25.00
2022-07-28T12:14:29.597Z,24.80
2022-07-28T12:16:57.451Z,24.90
2022-07-28T12:19:33.073Z,24.90
2022-07-28T12:22:00.792Z,25.00
2022-07-28T12:24:45.083Z,25.10
2022-07-28T12:27:16.565Z,25.20
2022-07-28T12:29:47.921Z,25.30
2022-07-28T12:32:17.825Z,25.40
2022-07-28T12:34:45.666Z,25.50
2022-07-28T12:37:13.827Z,25.40
2022-07-28T12:39:43.461Z,25.60
2022-07-28T12:42:12.677Z,25.80
2022-07-28T12:44:44.601Z,25.90
2022-07-28T12:47:13.322Z,26.00
2022-07-28T12:49:42.895Z,26.10
2022-07-28T12:52:24.462Z,26.10
2022-07-28T12:54:55.888Z,26.20
2022-07-28T12:57:51.243Z,26.40
2022-07-28T13:00:27.692Z,26.70
2022-07-28T13:02:56.718Z,26.60
2022-07-28T13:06:03.056Z,26.60
2022-07-28T13:08:45.447Z,26.60
2022-07-28T13:11:43.259Z,26.70
2022-07-28T13:14:03.387Z,27.00
2022-07-28T13:16:31.990Z,27.10
2022-07-28T13:19:06.022Z,26.90
2022-07-28T13:21:57.304Z,26.80
2022-07-28T13:24:27.226Z,27.00
2022-07-28T13:26:54.598Z,27.30
2022-07-28T13:29:22.976Z,27.40
2022-07-28T13:31:50.434Z,27.60
2022-07-28T13:34:17.984Z,27.50
2022-07-28T13:36:45.301Z,27.50
2022-07-28T13:39:14.273Z,27.40
2022-07-28T13:41:48.437Z,27.50
2022-07-28T13:44:29.981Z,27.60
2022-07-28T13:46:59.128Z,27.70
2022-07-28T13:49:28.063Z,27.70
2022-07-28T13:51:55.689Z,27.60
2022-07-28T13:54:22.850Z,27.70
2022-07-28T13:56:53.787Z,27.60
2022-07-28T13:59:22.068Z,27.80
2022-07-28T14:01:50.504Z,27.80
2022-07-28T14:04:21.578Z,27.80
2022-07-28T14:06:49.411Z,27.80
2022-07-28T14:09:18.328Z,27.90
2022-07-28T14:11:49.332Z,27.60
2022-07-28T14:14:20.201Z,27.40
2022-07-28T14:16:47.930Z,27.50
2022-07-28T14:19:23.390Z,27.50
2022-07-28T14:22:10.546Z,27.60
2022-07-28T14:24:41.878Z,27.60
2022-07-28T14:27:10.531Z,27.80
2022-07-28T14:29:38.656Z,27.80
2022-07-28T14:32:06.599Z,27.70
2022-07-28T14:34:34.428Z,27.70
2022-07-28T14:37:03.456Z,27.90
2022-07-28T14:39:33.723Z,27.90
2022-07-28T14:42:00.674Z,27.90
2022-07-28T14:44:27.899Z,27.80
2022-07-28T14:46:56.216Z,27.80
2022-07-28T14:49:23.164Z,27.70
2022-07-28T14:51:51.484Z,27.80
2022-07-28T14:54:19.208Z,27.60
2022-07-28T14:56:46.603Z,27.60
2022-07-28T14:59:14.234Z,27.90
2022-07-28T15:01:41.510Z,27.70
2022-07-28T15:04:10.165Z,27.60
2022-07-28T15:06:37.423Z,27.60
2022-07-28T15:09:04.651Z,27.80
2022-07-28T15:11:31.740Z,27.50
2022-07-28T15:13:59.750Z,27.40
2022-07-28T15:16:27.008Z,27.40
2022-07-28T15:18:55.384Z,27.20
2022-07-28T15:21:22.871Z,27.20
2022-07-28T15:23:51.529Z,27.40
2022-07-28T15:26:18.976Z,27.20
2022-07-28T15:28:48.514Z,27.20
2022-07-28T15:31:17.728Z,27.30
2022-07-28T15:33:51.667Z,27.50
2022-07-28T15:36:25.767Z,27.30
2022-07-28T15:38:54.442Z,27.20
2022-07-28T15:41:21.979Z,27.20
2022-07-28T15:43:49.362Z,27.10
2022-07-28T15:46:16.783Z,27.10
2022-07-28T15:48:44.964Z,27.00
2022-07-28T15:51:12.562Z,27.00
2022-07-28T15:53:41.147Z,27.10
2022-07-28T15:56:11.242Z,27.00
2022-07-28T15:58:38.549Z,27.00
2022-07-28T16:01:07.570Z,27.00
2022-07-28T16:03:36.008Z,26.80
2022-07-28T16:06:04.557Z,26.80
2022-07-28T16:08:31.626Z,26.80
2022-07-28T16:10:59.057Z,26.80
2022-07-28T16:13:36.590Z,26.60
2022-07-28T16:16:10.045Z,26.70
2022-07-28T16:18:38.570Z,26.50
2022-07-28T16:21:07.534Z,26.50
2022-07-28T16:23:34.873Z,26.70
2022-07-28T16:26:01.974Z,26.70
2022-07-28T16:28:29.074Z,26.70
2022-07-28T16:30:56.134Z,26.70
2022-07-28T16:33:23.273Z,26.60
2022-07-28T16:35:50.457Z,26.50
2022-07-28T16:38:19.322Z,26.50
2022-07-28T16:40:46.714Z,26.40
2022-07-28T16:43:15.063Z,26.50
2022-07-28T16:45:43.778Z,26.50
2022-07-28T16:48:13.026Z,26.80
2022-07-28T16:50:45.949Z,27.00
2022-07-28T16:53:14.243Z,27.10
2022-07-28T16:55:45.485Z,27.10
2022-07-28T16:58:14.217Z,27.00
2022-07-28T17:00:41.336Z,26.90
2022-07-28T17:03:11.213Z,26.90
2022-07-28T17:05:38.350Z,26.80
2022-07-28T17:08:06.235Z,26.90
2022-07-28T17:10:33.737Z,26.80
2022-07-28T17:13:02.185Z,26.80
2022-07-28T17:15:29.190Z,26.80
2022-07-28T17:17:56.539Z,26.90
2022-07-28T17:20:25.422Z,27.00
2022-07-28T17:22:52.638Z,27.20
2022-07-28T17:25:59.158Z,27.00
2022-07-28T17:28:07.590Z,27.00
2022-07-28T17:30:35.935Z,26.90
2022-07-28T17:33:08.647Z,26.70
2022-07-28T17:35:37.543Z,26.80
2022-07-28T17:38:08.327Z,26.70
2022-07-28T17:40:38.140Z,26.80
2022-07-28T17:43:05.372Z,26.70
2022-07-28T17:45:32.632Z,26.70
2022-07-28T17:47:59.639Z,26.80
2022-07-28T17:50:26.722Z,26.70
2022-07-28T17:52:53.897Z,26.50
2022-07-28T17:55:55.912Z,26.40
2022-07-28T17:58:34.150Z,26.50
2022-07-28T18:01:10.584Z,26.40
2022-07-28T18:03:59.606Z,26.10
2022-07-28T18:06:34.507Z,26.00
2022-07-28T18:09:06.184Z,25.80
2022-07-28T18:11:57.245Z,25.80
2022-07-28T18:14:30.669Z,25.90
2022-07-28T18:16:58.721Z,26.00
2022-07-28T18:19:31.819Z,26.00
2022-07-28T18:21:58.788Z,25.90
2022-07-28T18:24:26.657Z,25.80
2022-07-28T18:26:54.555Z,25.80
2022-07-28T18:29:22.127Z,26.00
2022-07-28T18:31:52.675Z,26.00
2022-07-28T18:34:23.335Z,26.20
2022-07-28T18:36:54.304Z,26.30
2022-07-28T18:39:21.846Z,26.20
2022-07-28T18:41:50.187Z,26.10
2022-07-28T18:44:18.315Z,26.00
2022-07-28T18:46:46.159Z,25.90
2022-07-28T18:49:13.506Z,25.80
2022-07-28T18:51:45.200Z,25.60
2022-07-28T18:54:19.987Z,25.50
2022-07-28T18:56:49.043Z,25.40
2022-07-28T18:59:18.622Z,25.40
2022-07-28T19:01:45.665Z,25.30
2022-07-28T19:04:13.531Z,25.20
2022-07-28T19:06:42.424Z,25.10
2022-07-28T19:09:09.978Z,25.00
2022-07-28T19:11:41.175Z,24.90
2022-07-28T19:14:12.539Z,25.00
2022-07-28T19:16:40.794Z,24.90
2022-07-28T19:19:08.104Z,24.90
2022-07-28T19:21:35.452Z,24.80
2022-07-28T19:24:02.890Z,24.80
2022-07-28T19:26:32.235Z,24.80
2022-07-28T19:28:59.441Z,24.90
2022-07-28T19:31:27.005Z,24.80
2022-07-28T19:33:55.502Z,24.80
2022-07-28T19:36:22.944Z,24.70
2022-07-28T19:38:50.269Z,24.80
2022-07-28T19:41:17.562Z,24.80
2022-07-28T19:43:44.567Z,24.80
2022-07-28T19:46:11.865Z,24.80
2022-07-28T19:48:39.504Z,24.70
2022-07-28T19:51:07.811Z,24.80
2022-07-28T19:53:35.881Z,24.80
2022-07-28T19:56:08.934Z,24.70
2022-07-28T19:58:36.900Z,24.60
2022-07-28T20:01:05.431Z,24.50
2022-07-28T20:04:03.731Z,24.50
2022-07-28T20:06:25.060Z,24.50
2022-07-28T20:08:53.431Z,24.40
2022-07-28T20:11:21.430Z,24.40
2022-07-28T20:13:49.505Z,24.40
2022-07-28T20:16:17.183Z,24.40
2022-07-28T20:18:44.839Z,24.40
2022-07-28T20:21:12.125Z,24.40
2022-07-28T20:23:40.985Z,24.40
2022-07-28T20:26:10.136Z,24.40
2022-07-28T20:28:38.105Z,24.30
2022-07-28T20:31:07.086Z,24.30
2022-07-28T20:33:34.320Z,24.40
2022-07-28T20:36:01.512Z,24.30
2022-07-28T20:38:28.775Z,24.30
2022-07-28T20:40:55.875Z,24.40
2022-07-28T20:43:22.921Z,24.40
2022-07-28T20:45:50.175Z,24.50
2022-07-28T20:48:17.289Z,24.50
2022-07-28T20:50:44.821Z,24.50
2022-07-28T20:53:13.098Z,24.40
2022-07-28T20:55:40.407Z,24.60
2022-07-28T20:58:07.448Z,24.50
2022-07-28T21:00:36.813Z,24.40
2022-07-28T21:03:04.176Z,24.40
2022-07-28T21:05:35.792Z,24.40
2022-07-28T21:08:05.730Z,24.40
2022-07-28T21:10:38.808Z,24.30
2022-07-28T21:13:05.957Z,24.30
2022-07-28T21:15:33.276Z,24.30
2022-07-28T21:18:00.235Z,24.30
2022-07-28T21:20:27.799Z,24.30
2022-07-28T21:22:55.360Z,24.20
2022-07-28T21:25:22.928Z,24.10
2022-07-28T21:28:08.826Z,24.00
2022-07-28T21:30:36.088Z,24.00
2022-07-28T21:33:03.145Z,24.00
2022-07-28T21:35:30.586Z,24.00
2022-07-28T21:37:58.513Z,24.00
2022-07-28T21:40:26.514Z,24.10
2022-07-28T21:42:53.902Z,24.10
2022-07-28T21:45:21.011Z,24.00
2022-07-28T21:47:48.487Z,24.00
2022-07-28T21:50:16.133Z,24.10
2022-07-28T21:52:44.048Z,24.00
2022-07-28T21:55:12.639Z,23.90
2022-07-28T21:57:39.813Z,23.80
2022-07-28T22:00:13.931Z,23.70
2022-07-28T22:02:42.128Z,23.80
2022-07-28T22:05:09.830Z,23.90
2022-07-28T22:07:37.064Z,23.80
2022-07-28T22:10:04.971Z,23.90
2022-07-28T22:12:32.257Z,23.70
2022-07-28T22:14:59.707Z,23.30
2022-07-28T22:17:27.261Z,22.90
2022-07-28T22:19:54.429Z,22.60
2022-07-28T22:22:22.081Z,22.30
2022-07-28T22:24:49.344Z,22.20
2022-07-28T22:27:16.500Z,22.10
2022-07-28T22:29:45.929Z,22.10
2022-07-28T22:32:28.844Z,22.10
2022-07-28T22:34:58.096Z,22.10
2022-07-28T22:37:25.144Z,22.10
2022-07-28T22:39:52.160Z,22.10
2022-07-28T22:42:19.290Z,22.10
2022-07-28T22:44:46.400Z,21.90
2022-07-28T22:47:13.393Z,21.60
2022-07-28T22:49:41.834Z,21.30
2022-07-28T22:52:09.256Z,21.10
2022-07-28T22:54:40.324Z,20.90
2022-07-28T22:57:07.903Z,20.70
2022-07-28T22:59:38.688Z,20.50
2022-07-28T23:02:07.589Z,20.30
2022-07-28T23:04:37.013Z,20.30
2022-07-28T23:07:04.751Z,20.20
2022-07-28T23:09:39.606Z,20.30
2022-07-28T23:12:07.539Z,20.20
2022-07-28T23:14:34.800Z,20.30
2022-07-28T23:17:02.282Z,20.20
2022-07-28T23:19:29.500Z,20.30
2022-07-28T23:21:56.788Z,20.30
2022-07-28T23:24:24.156Z,20.30
2022-07-28T23:26:51.680Z,20.40
2022-07-28T23:29:19.108Z,20.60
2022-07-28T23:31:46.357Z,20.70
2022-07-28T23:34:13.903Z,20.40
2022-07-28T23:36:41.808Z,20.70
2022-07-28T23:39:08.886Z,20.70
2022-07-28T23:41:35.921Z,20.50
2022-07-28T23:44:03.139Z,20.20
2022-07-28T23:46:30.149Z,20.00
2022-07-28T23:48:57.949Z,19.70
2022-07-28T23:51:47.083Z,19.60
2022-07-28T23:54:14.628Z,19.50
2022-07-28T23:56:42.382Z,19.50
2022-07-28T23:59:13.755Z,19.60
